createdAt,value
2019-05-22T00:02:00.950Z,13.66
2019-05-22T00:07:08.205Z,13.65
2019-05-22T00:12:17.436Z,13.61
2019-05-22T00:17:30.011Z,13.56
2019-05-22T00:22:35.280Z,13.31
2019-05-22T00:27:39.528Z,13.24
2019-05-22T00:32:43.220Z,13.28
2019-05-22T00:37:47.198Z,13.18
2019-05-22T00:43:03.483Z,13.23
2019-05-22T00:47:57.897Z,13.09
2019-05-22T00:53:02.700Z,13.15
2019-05-22T00:58:18.559Z,13.07
2019-05-22T01:03:24.337Z,13.14
2019-05-22T01:08:28.523Z,13.14
2019-05-22T01:13:32.771Z,13.04
2019-05-22T01:18:38.460Z,12.94
2019-05-22T01:23:42.740Z,13.02
2019-05-22T01:28:48.910Z,12.92
2019-05-22T01:34:01.546Z,12.97
2019-05-22T01:39:31.130Z,12.79
2019-05-22T01:44:35.486Z,12.96
2019-05-22T01:49:44.003Z,12.71
2019-05-22T01:54:47.900Z,12.67
2019-05-22T01:59:52.230Z,12.66
2019-05-22T02:04:58.044Z,12.48
2019-05-22T02:10:03.400Z,12.54
2019-05-22T02:15:09.415Z,12.55
2019-05-22T02:20:13.602Z,12.44
2019-05-22T02:25:17.887Z,12.51
2019-05-22T02:30:24.536Z,12.50
2019-05-22T02:35:28.804Z,12.47
2019-05-22T02:40:36.788Z,12.51
2019-05-22T02:45:39.897Z,12.39
2019-05-22T02:50:43.257Z,12.46
2019-05-22T02:55:47.097Z,12.36
2019-05-22T03:00:57.834Z,12.38
2019-05-22T03:06:05.065Z,12.45
2019-05-22T03:11:08.599Z,12.44
2019-05-22T03:16:11.694Z,12.44
2019-05-22T03:21:15.213Z,12.38
2019-05-22T03:26:21.784Z,12.28
2019-05-22T03:31:24.929Z,12.48
2019-05-22T03:36:28.740Z,12.29
2019-05-22T03:41:32.799Z,12.28
2019-05-22T03:46:44.200Z,12.25
2019-05-22T03:51:50.292Z,12.18
2019-05-22T03:56:55.679Z,12.15
2019-05-22T04:01:58.869Z,12.29
2019-05-22T04:07:03.195Z,12.37
2019-05-22T04:12:07.338Z,12.28
2019-05-22T04:17:12.990Z,12.29
2019-05-22T04:22:17.253Z,12.31
2019-05-22T04:27:21.236Z,12.22
2019-05-22T04:32:30.072Z,12.19
2019-05-22T04:37:33.999Z,12.23
2019-05-22T04:42:38.034Z,12.28
2019-05-22T04:47:54.752Z,12.28
2019-05-22T04:52:59.637Z,12.27
2019-05-22T04:58:04.125Z,12.10
2019-05-22T05:03:08.201Z,12.18
2019-05-22T05:08:18.048Z,12.01
2019-05-22T05:13:21.408Z,12.01
2019-05-22T05:18:25.014Z,12.02
2019-05-22T05:23:29.087Z,12.04
2019-05-22T05:28:33.983Z,12.00
2019-05-22T05:34:03.555Z,12.01
2019-05-22T05:39:12.376Z,12.01
2019-05-22T05:44:14.973Z,12.11
2019-05-22T05:49:18.876Z,12.06
2019-05-22T05:54:23.206Z,12.02
2019-05-22T05:59:28.036Z,12.10
2019-05-22T06:04:35.764Z,12.02
2019-05-22T06:09:39.840Z,11.97
2019-05-22T06:14:43.750Z,12.00
2019-05-22T06:19:50.261Z,12.12
2019-05-22T06:25:05.962Z,12.05
2019-05-22T06:30:13.644Z,11.89
2019-05-22T06:35:17.481Z,11.93
2019-05-22T06:40:22.248Z,11.87
2019-05-22T06:45:26.236Z,11.97
2019-05-22T06:50:29.627Z,12.01
2019-05-22T06:55:33.227Z,11.96
2019-05-22T07:00:36.860Z,12.14
2019-05-22T07:05:40.592Z,11.82
2019-05-22T07:10:44.434Z,11.86
2019-05-22T07:15:54.000Z,12.13
2019-05-22T07:20:57.337Z,12.08
2019-05-22T07:26:01.946Z,12.13
2019-05-22T07:31:07.676Z,11.95
2019-05-22T07:36:16.500Z,12.12
2019-05-22T07:41:16.976Z,12.19
2019-05-22T07:46:20.434Z,12.17
2019-05-22T07:51:25.339Z,12.22
2019-05-22T07:56:29.410Z,12.06
2019-05-22T08:01:33.336Z,12.13
2019-05-22T08:06:37.145Z,12.17
2019-05-22T08:11:41.242Z,12.08
2019-05-22T08:16:45.374Z,11.95
2019-05-22T08:21:48.372Z,12.09
2019-05-22T08:26:54.851Z,12.08
2019-05-22T08:31:59.142Z,12.05
2019-05-22T08:37:05.430Z,12.11
2019-05-22T08:42:10.834Z,12.07
2019-05-22T08:47:14.464Z,12.25
2019-05-22T08:52:23.576Z,12.28
2019-05-22T08:57:25.724Z,12.32
2019-05-22T09:02:31.745Z,12.25
2019-05-22T09:07:35.850Z,12.23
2019-05-22T09:12:39.063Z,12.21
2019-05-22T09:17:42.064Z,12.33
2019-05-22T09:22:47.060Z,12.32
2019-05-22T09:27:50.743Z,12.11
2019-05-22T09:32:55.477Z,12.22
2019-05-22T09:37:59.003Z,12.11
2019-05-22T09:43:02.757Z,12.20
2019-05-22T09:48:07.599Z,12.13
2019-05-22T09:53:11.024Z,12.20
2019-05-22T09:58:14.656Z,12.25
2019-05-22T10:03:18.066Z,12.17
2019-05-22T10:08:21.930Z,12.36
2019-05-22T10:13:28.996Z,12.32
2019-05-22T10:18:30.794Z,12.47
2019-05-22T10:23:35.055Z,12.54
2019-05-22T10:28:38.489Z,12.53
2019-05-22T10:33:42.142Z,12.84
2019-05-22T10:38:45.449Z,12.84
2019-05-22T10:43:49.728Z,12.74
2019-05-22T10:48:52.957Z,12.78
2019-05-22T10:53:56.235Z,12.93
2019-05-22T10:59:01.665Z,13.08
2019-05-22T11:04:06.121Z,13.19
2019-05-22T11:09:11.829Z,13.08
2019-05-22T11:14:15.143Z,13.12
2019-05-22T11:19:20.553Z,13.04
2019-05-22T11:24:24.022Z,13.09
2019-05-22T11:29:28.249Z,13.23
2019-05-22T11:34:31.959Z,13.09
2019-05-22T11:39:39.784Z,13.09
2019-05-22T11:44:42.568Z,13.36
2019-05-22T11:49:45.802Z,13.41
2019-05-22T11:54:49.609Z,13.38
2019-05-22T11:59:53.141Z,13.19
2019-05-22T12:04:57.644Z,12.97
2019-05-22T12:10:00.597Z,13.17
2019-05-22T12:15:06.182Z,13.32
2019-05-22T12:20:10.844Z,13.26
2019-05-22T12:25:14.731Z,13.06
2019-05-22T12:30:19.832Z,13.15
2019-05-22T12:35:25.098Z,13.64
2019-05-22T12:40:33.643Z,13.80
2019-05-22T12:45:39.134Z,13.66
2019-05-22T12:50:42.556Z,13.86
2019-05-22T12:55:46.052Z,13.96
2019-05-22T13:00:49.224Z,14.20
2019-05-22T13:05:52.581Z,13.92
2019-05-22T13:10:56.920Z,14.19
2019-05-22T13:16:02.299Z,14.20
2019-05-22T13:21:11.109Z,14.18
2019-05-22T13:26:16.634Z,14.05
2019-05-22T13:31:21.043Z,14.14
2019-05-22T13:36:24.817Z,14.01
2019-05-22T13:41:28.829Z,14.20
2019-05-22T13:46:31.691Z,14.21
2019-05-22T13:51:35.578Z,14.25
2019-05-22T13:56:40.054Z,14.25
2019-05-22T14:01:43.569Z,14.23
2019-05-22T14:06:47.246Z,14.45
2019-05-22T14:11:51.388Z,14.43
2019-05-22T14:16:54.628Z,14.67
2019-05-22T14:21:57.877Z,15.42
2019-05-22T14:27:01.271Z,15.45
2019-05-22T14:32:06.762Z,15.53
2019-05-22T14:37:10.663Z,15.44
2019-05-22T14:42:15.084Z,15.97
2019-05-22T14:47:19.098Z,17.12
2019-05-22T14:52:23.750Z,16.95
2019-05-22T14:57:27.682Z,16.36
2019-05-22T15:02:31.513Z,17.09
2019-05-22T15:07:34.497Z,16.94
2019-05-22T15:12:37.032Z,17.89
2019-05-22T15:17:40.686Z,18.52
2019-05-22T15:22:44.542Z,18.60
2019-05-22T15:27:48.225Z,19.06
2019-05-22T15:32:51.739Z,19.33
2019-05-22T15:37:55.505Z,19.15
2019-05-22T15:42:59.270Z,18.81
2019-05-22T15:48:07.487Z,19.22
2019-05-22T15:53:14.991Z,18.94
2019-05-22T15:58:18.555Z,19.03
2019-05-22T16:03:26.408Z,19.04
2019-05-22T16:08:31.282Z,19.46
2019-05-22T16:13:36.374Z,19.53
2019-05-22T16:18:43.801Z,19.62
2019-05-22T16:23:47.734Z,19.21
2019-05-22T16:28:51.377Z,19.79
2019-05-22T16:33:54.675Z,19.60
2019-05-22T16:38:57.579Z,18.93
2019-05-22T16:44:01.400Z,18.82
2019-05-22T16:49:05.433Z,18.40
2019-05-22T16:54:10.182Z,18.54
2019-05-22T16:59:14.282Z,18.67
2019-05-22T17:04:18.164Z,18.58
2019-05-22T17:09:21.234Z,18.02
2019-05-22T17:14:25.655Z,18.05
2019-05-22T17:19:29.688Z,18.24
2019-05-22T17:24:34.454Z,18.47
2019-05-22T17:29:38.143Z,17.71
2019-05-22T17:34:41.104Z,17.78
2019-05-22T17:39:48.012Z,17.81
2019-05-22T17:44:53.632Z,18.06
2019-05-22T17:49:58.694Z,17.77
2019-05-22T17:55:04.423Z,17.03
2019-05-22T18:00:12.495Z,16.86
2019-05-22T18:05:16.280Z,16.76
2019-05-22T18:10:20.567Z,15.78
2019-05-22T18:15:24.142Z,15.29
2019-05-22T18:20:41.723Z,14.93
2019-05-22T18:25:32.307Z,14.59
2019-05-22T18:30:37.751Z,14.35
2019-05-22T18:35:41.226Z,14.43
2019-05-22T18:40:44.876Z,14.24
2019-05-22T18:45:48.934Z,14.14
2019-05-22T18:50:53.310Z,14.07
2019-05-22T18:55:57.146Z,13.72
2019-05-22T19:01:00.750Z,13.79
2019-05-22T19:06:04.938Z,13.63
2019-05-22T19:11:09.723Z,13.44
2019-05-22T19:16:13.994Z,13.52
2019-05-22T19:21:18.342Z,13.34
2019-05-22T19:26:22.208Z,13.13
2019-05-22T19:31:25.979Z,13.03
2019-05-22T19:36:29.862Z,12.94
2019-05-22T19:41:34.110Z,12.86
2019-05-22T19:46:39.110Z,12.82
2019-05-22T19:51:42.618Z,12.79
2019-05-22T19:56:45.662Z,12.64
2019-05-22T20:01:51.935Z,12.71
2019-05-22T20:06:56.192Z,12.43
2019-05-22T20:12:01.254Z,12.51
2019-05-22T20:17:05.401Z,12.46
2019-05-22T20:22:07.824Z,12.37
2019-05-22T20:27:12.014Z,12.35
2019-05-22T20:32:15.704Z,12.35
2019-05-22T20:37:18.838Z,12.42
2019-05-22T20:42:22.960Z,12.47
2019-05-22T20:47:26.534Z,12.48
2019-05-22T20:52:31.212Z,12.41
2019-05-22T20:57:35.986Z,12.38
2019-05-22T21:02:39.629Z,12.35
2019-05-22T21:07:48.538Z,12.36
2019-05-22T21:12:52.811Z,12.26
2019-05-22T21:17:58.239Z,12.12
2019-05-22T21:23:03.277Z,12.16
2019-05-22T21:28:06.814Z,12.14
2019-05-22T21:33:11.040Z,12.06
2019-05-22T21:38:14.214Z,11.94
2019-05-22T21:43:18.756Z,11.79
2019-05-22T21:48:23.389Z,11.67
2019-05-22T21:53:27.141Z,11.51
2019-05-22T21:58:30.663Z,11.47
2019-05-22T22:03:37.904Z,11.42
2019-05-22T22:08:41.484Z,11.33
2019-05-22T22:13:45.007Z,11.30
2019-05-22T22:18:49.425Z,11.13
2019-05-22T22:23:52.844Z,11.15
2019-05-22T22:28:56.797Z,11.05
2019-05-22T22:34:07.467Z,11.08
2019-05-22T22:39:14.799Z,11.00
2019-05-22T22:44:22.159Z,10.97
2019-05-22T22:49:27.760Z,10.92
2019-05-22T22:54:31.567Z,10.56
2019-05-22T22:59:35.683Z,10.33
2019-05-22T23:04:39.684Z,10.34
2019-05-22T23:09:43.869Z,10.51
2019-05-22T23:14:51.847Z,10.61
2019-05-22T23:19:54.687Z,10.53
2019-05-22T23:24:59.794Z,10.53
2019-05-22T23:30:04.445Z,10.42
2019-05-22T23:35:08.484Z,10.39
2019-05-22T23:40:13.159Z,10.26
2019-05-22T23:45:19.733Z,10.27
2019-05-22T23:50:24.091Z,10.25
2019-05-22T23:55:27.425Z,10.16
